createdAt,value
2018-08-28T00:00:25.925Z,32.3
2018-08-28T00:01:27.521Z,31.8
2018-08-28T00:02:29.133Z,32.3
2018-08-28T00:03:30.757Z,31.3
2018-08-28T00:04:32.394Z,32.3
2018-08-28T00:05:33.835Z,32.7
2018-08-28T00:06:35.282Z,32.3
2018-08-28T00:07:36.723Z,31.8
2018-08-28T00:08:38.338Z,32.3
2018-08-28T00:09:39.793Z,32.3
2018-08-28T00:10:41.422Z,31.8
2018-08-28T00:11:42.877Z,32.3
2018-08-28T00:12:44.516Z,31.3
2018-08-28T00:13:46.141Z,32.3
2018-08-28T00:14:47.763Z,31.8
2018-08-28T00:15:49.197Z,32.3
2018-08-28T00:16:50.906Z,31.8
2018-08-28T00:17:52.398Z,32.3
2018-08-28T00:18:54.024Z,32.3
2018-08-28T00:19:55.642Z,31.8
2018-08-28T00:20:57.249Z,31.8
2018-08-28T00:21:58.692Z,32.3
2018-08-28T00:23:00.157Z,32.7
2018-08-28T00:24:01.773Z,32.7
2018-08-28T00:25:03.381Z,32.3
2018-08-28T00:26:04.841Z,32.7
2018-08-28T00:27:06.455Z,31.8
2018-08-28T00:28:07.901Z,31.8
2018-08-28T00:29:09.503Z,32.3
2018-08-28T00:30:11.163Z,32.3
2018-08-28T00:31:12.776Z,32.3
2018-08-28T00:32:14.285Z,31.8
2018-08-28T00:33:15.924Z,31.8
2018-08-28T00:34:17.540Z,32.3
2018-08-28T00:35:19.146Z,32.3
2018-08-28T00:36:20.598Z,31.8
2018-08-28T00:37:22.206Z,31.8
2018-08-28T00:38:23.821Z,31.3
2018-08-28T00:39:25.430Z,31.3
2018-08-28T00:40:27.027Z,32.3
2018-08-28T00:41:28.303Z,32.7
2018-08-28T00:42:29.738Z,31.8
2018-08-28T00:43:31.199Z,32.3
2018-08-28T00:44:32.856Z,31.8
2018-08-28T00:45:34.530Z,31.3
2018-08-28T00:46:35.993Z,31.8
2018-08-28T00:47:37.624Z,32.3
2018-08-28T00:48:39.226Z,31.8
2018-08-28T00:49:40.841Z,31.8
2018-08-28T00:50:42.299Z,31.3
2018-08-28T00:51:43.751Z,31.8
2018-08-28T00:52:45.199Z,32.3
2018-08-28T00:53:46.811Z,32.3
2018-08-28T00:54:48.252Z,31.8
2018-08-28T00:55:49.852Z,31.8
2018-08-28T00:56:51.475Z,32.3
2018-08-28T00:57:52.759Z,32.3
2018-08-28T00:58:54.372Z,32.7
2018-08-28T00:59:55.645Z,31.3
2018-08-28T01:00:57.271Z,32.7
2018-08-28T01:01:58.711Z,31.8
2018-08-28T01:03:00.307Z,31.8
2018-08-28T01:04:01.930Z,31.8
2018-08-28T01:05:03.525Z,31.8
2018-08-28T01:06:05.190Z,32.3
2018-08-28T01:07:06.657Z,31.8
2018-08-28T01:08:08.116Z,29.3
2018-08-28T01:09:09.558Z,27.9
2018-08-28T01:10:10.860Z,26.9
2018-08-28T01:11:12.471Z,26.4
2018-08-28T01:12:14.065Z,26.9
2018-08-28T01:13:15.497Z,28.8
2018-08-28T01:14:17.083Z,29.8
2018-08-28T01:15:18.713Z,31.8
2018-08-28T01:16:20.002Z,32.7
2018-08-28T01:17:21.466Z,34.2
2018-08-28T01:18:22.755Z,34.2
2018-08-28T01:19:24.195Z,34.7
2018-08-28T01:20:25.815Z,35.7
2018-08-28T01:21:27.451Z,36.7
2018-08-28T01:22:29.078Z,36.7
2018-08-28T01:23:30.668Z,37.1
2018-08-28T01:24:32.102Z,38.1
2018-08-28T01:25:33.718Z,38.1
2018-08-28T01:26:35.358Z,38.6
2018-08-28T01:27:36.958Z,38.6
2018-08-28T01:28:38.439Z,38.6
2018-08-28T01:29:40.086Z,39.1
2018-08-28T01:30:41.550Z,39.1
2018-08-28T01:31:43.044Z,39.1
2018-08-28T01:32:44.649Z,40.1
2018-08-28T01:33:46.247Z,40.1
2018-08-28T01:34:47.857Z,39.1
2018-08-28T01:35:49.473Z,40.1
2018-08-28T01:36:51.090Z,40.6
2018-08-28T01:37:52.689Z,41.1
2018-08-28T01:38:54.303Z,40.1
2018-08-28T01:39:55.784Z,40.6
2018-08-28T01:40:57.390Z,40.6
2018-08-28T01:41:58.847Z,41.1
2018-08-28T01:43:00.290Z,40.6
2018-08-28T01:44:01.775Z,40.6
2018-08-28T01:45:03.396Z,40.6
2018-08-28T01:46:04.660Z,41.1
2018-08-28T01:47:06.283Z,40.1
2018-08-28T01:48:07.908Z,41.1
2018-08-28T01:49:09.509Z,40.1
2018-08-28T01:50:10.765Z,41.1
2018-08-28T01:51:12.358Z,41.1
2018-08-28T01:52:13.995Z,40.6
2018-08-28T01:53:15.622Z,41.1
2018-08-28T01:54:17.044Z,40.6
2018-08-28T01:55:18.167Z,40.6
2018-08-28T01:56:19.761Z,40.6
2018-08-28T01:57:21.227Z,40.6
2018-08-28T01:58:22.832Z,40.6
2018-08-28T01:59:23.943Z,40.6
2018-08-28T02:00:25.369Z,41.1
2018-08-28T02:01:26.648Z,40.1
2018-08-28T02:02:28.281Z,41.1
2018-08-28T02:03:29.746Z,41.1
2018-08-28T02:04:31.194Z,40.1
2018-08-28T02:05:32.790Z,41.1
2018-08-28T02:06:34.443Z,40.1
2018-08-28T02:07:36.061Z,40.6
2018-08-28T02:08:37.473Z,40.6
2018-08-28T02:09:39.088Z,40.6
2018-08-28T02:10:40.692Z,40.1
2018-08-28T02:11:42.345Z,40.6
2018-08-28T02:12:43.976Z,41.1
2018-08-28T02:13:45.584Z,40.1
2018-08-28T02:14:47.031Z,40.6
2018-08-28T02:15:48.290Z,40.1
2018-08-28T02:16:49.891Z,40.1
2018-08-28T02:17:51.500Z,40.1
2018-08-28T02:18:53.095Z,41.1
2018-08-28T02:19:54.693Z,40.6
2018-08-28T02:20:56.127Z,40.1
2018-08-28T02:21:57.612Z,40.6
2018-08-28T02:22:59.063Z,39.6
2018-08-28T02:24:00.367Z,39.6
2018-08-28T02:25:01.635Z,40.1
2018-08-28T02:26:03.258Z,40.1
2018-08-28T02:27:04.688Z,40.6
2018-08-28T02:28:06.135Z,39.6
2018-08-28T02:29:07.593Z,39.6
2018-08-28T02:30:09.046Z,39.1
2018-08-28T02:31:10.498Z,39.6
2018-08-28T02:32:12.112Z,39.6
2018-08-28T02:33:13.741Z,39.6
2018-08-28T02:34:15.180Z,39.1
2018-08-28T02:35:16.635Z,40.1
2018-08-28T02:36:18.103Z,39.6
2018-08-28T02:37:19.217Z,39.6
2018-08-28T02:38:20.835Z,40.1
2018-08-28T02:39:22.279Z,39.6
2018-08-28T02:40:23.879Z,40.1
2018-08-28T02:41:25.494Z,39.6
2018-08-28T02:42:27.125Z,39.1
2018-08-28T02:43:28.725Z,40.1
2018-08-28T02:44:30.338Z,39.6
2018-08-28T02:45:31.947Z,39.6
2018-08-28T02:46:33.551Z,39.6
2018-08-28T02:47:34.845Z,40.1
2018-08-28T02:48:36.448Z,40.1
2018-08-28T02:49:37.768Z,38.6
2018-08-28T02:50:39.226Z,39.1
2018-08-28T02:51:40.840Z,39.6
2018-08-28T02:52:42.457Z,39.6
2018-08-28T02:53:44.092Z,39.1
2018-08-28T02:54:45.527Z,39.6
2018-08-28T02:55:47.162Z,39.1
2018-08-28T02:56:48.795Z,39.1
2018-08-28T02:57:50.051Z,39.6
2018-08-28T02:58:51.667Z,39.1
2018-08-28T02:59:53.133Z,38.6
2018-08-28T03:00:54.413Z,39.1
2018-08-28T03:01:55.701Z,38.6
2018-08-28T03:02:57.397Z,38.6
2018-08-28T03:03:58.900Z,39.1
2018-08-28T03:05:00.531Z,39.1
2018-08-28T03:06:02.132Z,38.6
2018-08-28T03:07:03.756Z,39.1
2018-08-28T03:08:05.381Z,39.1
2018-08-28T03:09:06.850Z,38.6
2018-08-28T03:10:08.470Z,39.6
2018-08-28T03:11:10.258Z,39.6
2018-08-28T03:12:11.726Z,38.6
2018-08-28T03:13:13.360Z,39.1
2018-08-28T03:14:14.991Z,39.1
2018-08-28T03:15:16.441Z,38.6
2018-08-28T03:16:17.879Z,38.6
2018-08-28T03:17:19.304Z,38.6
2018-08-28T03:18:20.765Z,38.6
2018-08-28T03:19:22.392Z,38.1
2018-08-28T03:20:24.001Z,38.6
2018-08-28T03:21:25.634Z,39.1
2018-08-28T03:22:27.262Z,39.1
2018-08-28T03:23:28.720Z,38.6
2018-08-28T03:24:30.355Z,39.1
2018-08-28T03:25:31.974Z,39.1
2018-08-28T03:26:33.431Z,39.1
2018-08-28T03:27:35.037Z,39.1
2018-08-28T03:28:36.484Z,38.6
2018-08-28T03:29:38.097Z,39.6
2018-08-28T03:30:39.709Z,39.1
2018-08-28T03:31:41.164Z,39.6
2018-08-28T03:32:42.788Z,39.6
2018-08-28T03:33:44.247Z,39.1
2018-08-28T03:34:45.668Z,39.6
2018-08-28T03:35:47.268Z,39.6
2018-08-28T03:36:48.565Z,39.1
2018-08-28T03:37:50.149Z,40.1
2018-08-28T03:38:51.590Z,40.1
2018-08-28T03:39:53.184Z,40.6
2018-08-28T03:40:54.794Z,41.1
2018-08-28T03:41:56.400Z,40.6
2018-08-28T03:42:57.849Z,41.1
2018-08-28T03:43:59.482Z,40.6
2018-08-28T03:45:00.907Z,40.6
2018-08-28T03:46:02.535Z,41.1
2018-08-28T03:47:04.157Z,41.1
2018-08-28T03:48:05.801Z,41.1
2018-08-28T03:49:07.247Z,40.6
2018-08-28T03:50:08.860Z,41.1
2018-08-28T03:51:10.306Z,41.1
2018-08-28T03:52:11.916Z,41.1
2018-08-28T03:53:13.513Z,41.1
2018-08-28T03:54:14.959Z,40.1
2018-08-28T03:55:16.446Z,41.1
2018-08-28T03:56:18.196Z,40.6
2018-08-28T03:57:19.645Z,41.1
2018-08-28T03:58:21.251Z,41.5
2018-08-28T03:59:22.692Z,41.1
2018-08-28T04:00:24.160Z,40.6
2018-08-28T04:01:25.603Z,41.1
2018-08-28T04:02:26.884Z,40.6
2018-08-28T04:03:28.478Z,40.6
2018-08-28T04:04:29.778Z,41.5
2018-08-28T04:05:31.392Z,40.6
2018-08-28T04:06:33.022Z,41.5
2018-08-28T04:07:34.485Z,41.5
2018-08-28T04:08:36.088Z,41.1
2018-08-28T04:09:37.700Z,41.1
2018-08-28T04:10:39.138Z,41.1
2018-08-28T04:11:40.574Z,40.1
2018-08-28T04:12:42.195Z,40.6
2018-08-28T04:13:43.851Z,40.6
2018-08-28T04:14:45.443Z,41.5
2018-08-28T04:15:46.710Z,41.1
2018-08-28T04:16:48.148Z,40.6
2018-08-28T04:17:49.771Z,40.6
2018-08-28T04:18:51.390Z,40.1
2018-08-28T04:19:52.833Z,40.6
2018-08-28T04:20:54.451Z,40.6
2018-08-28T04:21:55.898Z,40.1
2018-08-28T04:22:57.511Z,40.6
2018-08-28T04:23:59.003Z,40.1
2018-08-28T04:25:00.601Z,40.6
2018-08-28T04:26:02.224Z,40.1
2018-08-28T04:27:03.839Z,40.6
2018-08-28T04:28:05.172Z,40.6
2018-08-28T04:29:06.798Z,39.6
2018-08-28T04:30:08.418Z,39.6
2018-08-28T04:31:10.042Z,40.1
2018-08-28T04:32:11.489Z,39.6
2018-08-28T04:33:12.920Z,40.1
2018-08-28T04:34:14.377Z,39.1
2018-08-28T04:35:15.991Z,39.6
2018-08-28T04:36:17.620Z,40.6
2018-08-28T04:37:18.721Z,40.6
2018-08-28T04:38:20.366Z,39.6
2018-08-28T04:39:21.963Z,39.1
2018-08-28T04:40:23.276Z,40.6
2018-08-28T04:41:24.733Z,40.6
2018-08-28T04:42:26.172Z,40.6
2018-08-28T04:43:27.781Z,40.1
2018-08-28T04:44:29.228Z,39.6
2018-08-28T04:45:30.670Z,39.1
2018-08-28T04:46:32.269Z,40.1
2018-08-28T04:47:33.921Z,39.6
2018-08-28T04:48:35.904Z,40.1
2018-08-28T04:49:37.369Z,39.6
2018-08-28T04:50:38.823Z,39.6
2018-08-28T04:51:40.270Z,39.1
2018-08-28T04:52:41.553Z,39.6
2018-08-28T04:53:42.821Z,39.6
2018-08-28T04:54:44.514Z,39.1
2018-08-28T04:55:45.859Z,39.1
2018-08-28T04:56:47.473Z,39.6
2018-08-28T04:57:49.090Z,39.1
2018-08-28T04:58:50.537Z,39.1
2018-08-28T04:59:51.994Z,39.1
2018-08-28T05:00:53.441Z,39.1
2018-08-28T05:01:55.069Z,38.1
2018-08-28T05:02:56.505Z,39.1
2018-08-28T05:03:58.134Z,39.1
2018-08-28T05:04:59.763Z,38.6
2018-08-28T05:06:01.397Z,39.6
2018-08-28T05:07:02.869Z,38.6
2018-08-28T05:08:04.319Z,39.1
2018-08-28T05:09:05.935Z,38.6
2018-08-28T05:10:07.567Z,38.6
2018-08-28T05:11:09.014Z,39.6
2018-08-28T05:12:10.457Z,38.1
2018-08-28T05:13:12.090Z,39.1
2018-08-28T05:14:13.534Z,39.1
2018-08-28T05:15:14.973Z,39.1
2018-08-28T05:16:16.405Z,38.6
2018-08-28T05:17:18.019Z,39.1
2018-08-28T05:18:19.640Z,38.6
2018-08-28T05:19:21.484Z,38.1
2018-08-28T05:20:23.410Z,38.1
2018-08-28T05:21:25.009Z,39.1
2018-08-28T05:22:26.476Z,39.1
2018-08-28T05:23:28.099Z,39.1
2018-08-28T05:24:29.699Z,39.6
2018-08-28T05:25:31.290Z,39.1
2018-08-28T05:26:32.784Z,38.6
2018-08-28T05:27:34.259Z,39.1
2018-08-28T05:28:35.704Z,39.1
2018-08-28T05:29:37.489Z,39.1
2018-08-28T05:30:39.996Z,39.1
2018-08-28T05:31:41.456Z,39.1
2018-08-28T05:32:43.044Z,40.1
2018-08-28T05:33:44.506Z,39.1
2018-08-28T05:34:46.143Z,40.1
2018-08-28T05:35:47.608Z,40.1
2018-08-28T05:36:49.216Z,39.6
2018-08-28T05:37:50.837Z,39.6
2018-08-28T05:38:52.480Z,40.6
2018-08-28T05:39:54.090Z,40.6
2018-08-28T05:40:55.529Z,40.1
2018-08-28T05:41:56.873Z,40.6
2018-08-28T05:42:58.485Z,40.6
2018-08-28T05:43:59.942Z,40.6
2018-08-28T05:45:01.567Z,40.6
2018-08-28T05:46:03.172Z,41.5
2018-08-28T05:47:04.783Z,41.1
2018-08-28T05:48:06.224Z,40.1
2018-08-28T05:49:07.832Z,40.6
2018-08-28T05:50:09.435Z,41.1
2018-08-28T05:51:10.537Z,41.1
2018-08-28T05:52:12.131Z,41.1
2018-08-28T05:53:13.747Z,40.6
2018-08-28T05:54:15.389Z,41.1
2018-08-28T05:55:16.838Z,41.1
2018-08-28T05:56:18.735Z,41.5
2018-08-28T05:57:20.847Z,41.1
2018-08-28T05:58:22.499Z,41.1
2018-08-28T05:59:23.934Z,40.6
2018-08-28T06:00:25.373Z,40.6
2018-08-28T06:01:26.651Z,40.1
2018-08-28T06:02:28.272Z,41.1
2018-08-28T06:03:30.631Z,40.6
2018-08-28T06:04:32.538Z,41.5
2018-08-28T06:05:34.152Z,40.6
2018-08-28T06:06:35.763Z,41.1
2018-08-28T06:07:37.363Z,41.1
2018-08-28T06:08:39.049Z,41.1
2018-08-28T06:09:40.752Z,40.6
2018-08-28T06:10:42.353Z,40.6
2018-08-28T06:11:43.998Z,40.6
2018-08-28T06:12:45.479Z,41.1
2018-08-28T06:13:46.909Z,41.1
2018-08-28T06:14:49.012Z,40.6
2018-08-28T06:15:50.860Z,40.1
2018-08-28T06:16:52.306Z,40.6
2018-08-28T06:17:53.737Z,40.6
2018-08-28T06:18:55.161Z,40.6
2018-08-28T06:19:56.789Z,40.1
2018-08-28T06:20:58.213Z,40.1
2018-08-28T06:22:00.027Z,40.6
2018-08-28T06:23:02.006Z,40.1
2018-08-28T06:24:03.821Z,40.1
2018-08-28T06:25:05.430Z,40.1
2018-08-28T06:26:06.982Z,40.6
2018-08-28T06:27:08.542Z,41.1
2018-08-28T06:28:10.012Z,40.6
2018-08-28T06:29:11.455Z,40.6
2018-08-28T06:30:13.057Z,40.1
2018-08-28T06:31:14.321Z,40.1
2018-08-28T06:32:15.946Z,40.1
2018-08-28T06:33:17.402Z,40.1
2018-08-28T06:34:18.847Z,40.1
2018-08-28T06:35:20.470Z,41.1
2018-08-28T06:36:21.926Z,40.6
2018-08-28T06:37:23.908Z,39.1
2018-08-28T06:38:25.453Z,40.1
2018-08-28T06:39:26.930Z,39.6
2018-08-28T06:40:28.555Z,40.6
2018-08-28T06:41:30.019Z,39.6
2018-08-28T06:42:31.307Z,40.1
2018-08-28T06:43:33.043Z,39.6
2018-08-28T06:44:34.799Z,39.6
2018-08-28T06:45:36.483Z,39.1
2018-08-28T06:46:37.932Z,40.1
2018-08-28T06:47:39.384Z,39.6
2018-08-28T06:48:40.993Z,39.6
2018-08-28T06:49:43.283Z,40.1
2018-08-28T06:50:45.015Z,39.6
2018-08-28T06:51:46.478Z,40.1
2018-08-28T06:52:48.119Z,39.6
2018-08-28T06:53:49.606Z,39.1
2018-08-28T06:54:51.214Z,39.6
2018-08-28T06:55:52.686Z,39.6
2018-08-28T06:56:54.898Z,40.1
2018-08-28T06:57:56.336Z,40.1
2018-08-28T06:58:57.465Z,39.6
2018-08-28T06:59:58.755Z,40.1
2018-08-28T07:01:00.362Z,39.1
2018-08-28T07:02:01.967Z,39.6
2018-08-28T07:03:03.440Z,39.1
2018-08-28T07:04:05.618Z,39.6
2018-08-28T07:05:07.083Z,39.6
2018-08-28T07:06:08.551Z,39.6
2018-08-28T07:07:10.144Z,39.1
2018-08-28T07:08:11.590Z,38.6
2018-08-28T07:09:13.196Z,39.1
2018-08-28T07:10:15.135Z,40.1
2018-08-28T07:11:16.823Z,39.1
2018-08-28T07:12:18.431Z,39.1
2018-08-28T07:13:20.034Z,39.1
2018-08-28T07:14:21.316Z,39.1
2018-08-28T07:15:22.590Z,39.1
2018-08-28T07:16:24.024Z,39.1
2018-08-28T07:17:25.638Z,39.1
2018-08-28T07:18:26.920Z,39.1
2018-08-28T07:19:28.358Z,38.6
2018-08-28T07:20:29.830Z,39.1
2018-08-28T07:21:31.297Z,38.1
2018-08-28T07:22:32.770Z,38.6
2018-08-28T07:23:34.236Z,38.6
2018-08-28T07:24:35.871Z,39.6
2018-08-28T07:25:37.886Z,39.1
2018-08-28T07:26:39.196Z,39.1
2018-08-28T07:27:40.633Z,38.1
2018-08-28T07:28:42.093Z,39.1
2018-08-28T07:29:43.694Z,38.6
2018-08-28T07:30:45.304Z,40.1
2018-08-28T07:31:47.064Z,39.1
2018-08-28T07:32:48.947Z,39.1
2018-08-28T07:33:50.565Z,38.6
2018-08-28T07:34:52.013Z,39.6
2018-08-28T07:35:53.627Z,39.6
2018-08-28T07:36:55.253Z,39.6
2018-08-28T07:37:56.867Z,39.6
2018-08-28T07:38:58.325Z,40.1
2018-08-28T07:39:59.957Z,40.1
2018-08-28T07:41:01.414Z,41.1
2018-08-28T07:42:03.046Z,40.1
2018-08-28T07:43:04.673Z,40.6
2018-08-28T07:44:06.120Z,41.1
2018-08-28T07:45:07.393Z,40.6
2018-08-28T07:46:09.021Z,41.1
2018-08-28T07:47:10.474Z,40.6
2018-08-28T07:48:12.148Z,40.6
2018-08-28T07:49:13.671Z,40.6
2018-08-28T07:50:15.328Z,41.5
2018-08-28T07:51:16.597Z,41.5
2018-08-28T07:52:18.047Z,41.1
2018-08-28T07:53:19.489Z,41.1
2018-08-28T07:54:21.098Z,41.5
2018-08-28T07:55:22.568Z,41.1
2018-08-28T07:56:24.025Z,41.5
2018-08-28T07:57:25.472Z,41.5
2018-08-28T07:58:27.104Z,41.1
2018-08-28T07:59:28.577Z,40.6
2018-08-28T08:00:30.197Z,40.6
2018-08-28T08:01:32.227Z,41.1
2018-08-28T08:02:34.218Z,41.5
2018-08-28T08:03:35.840Z,41.5
2018-08-28T08:04:37.463Z,40.6
2018-08-28T08:05:38.742Z,41.1
2018-08-28T08:06:40.363Z,41.1
2018-08-28T08:07:42.124Z,41.1
2018-08-28T08:08:43.758Z,41.5
2018-08-28T08:09:45.198Z,40.6
2018-08-28T08:10:46.812Z,41.5
2018-08-28T08:11:48.286Z,41.5
2018-08-28T08:12:49.978Z,41.5
2018-08-28T08:13:51.623Z,41.1
2018-08-28T08:14:53.047Z,40.6
2018-08-28T08:15:54.667Z,40.6
2018-08-28T08:16:55.946Z,40.1
2018-08-28T08:17:57.571Z,40.6
2018-08-28T08:18:59.162Z,41.1
2018-08-28T08:20:00.468Z,40.6
2018-08-28T08:21:02.095Z,40.6
2018-08-28T08:22:03.682Z,40.6
2018-08-28T08:23:05.559Z,41.1
2018-08-28T08:24:07.403Z,41.1
2018-08-28T08:25:09.023Z,40.6
2018-08-28T08:26:10.480Z,41.1
2018-08-28T08:27:12.109Z,40.1
2018-08-28T08:28:14.086Z,40.6
2018-08-28T08:29:16.648Z,40.6
2018-08-28T08:30:17.921Z,40.6
2018-08-28T08:31:19.372Z,39.6
2018-08-28T08:32:20.875Z,39.6
2018-08-28T08:33:22.175Z,40.1
2018-08-28T08:34:23.473Z,39.6
2018-08-28T08:35:25.494Z,40.6
2018-08-28T08:36:27.393Z,41.1
2018-08-28T08:37:28.991Z,40.1
2018-08-28T08:38:30.309Z,40.1
2018-08-28T08:39:31.944Z,40.6
2018-08-28T08:40:33.545Z,40.1
2018-08-28T08:41:35.172Z,40.1
2018-08-28T08:42:36.328Z,39.6
2018-08-28T08:43:37.770Z,39.6
2018-08-28T08:44:39.075Z,39.6
2018-08-28T08:45:40.722Z,40.1
2018-08-28T08:46:42.358Z,39.6
2018-08-28T08:47:43.812Z,39.1
2018-08-28T08:48:45.107Z,40.1
2018-08-28T08:49:46.740Z,39.6
2018-08-28T08:50:47.847Z,39.1
2018-08-28T08:51:49.475Z,39.6
2018-08-28T08:52:51.086Z,40.1
2018-08-28T08:53:52.715Z,40.1
2018-08-28T08:54:54.615Z,39.6
2018-08-28T08:55:56.516Z,39.1
2018-08-28T08:56:58.110Z,39.1
2018-08-28T08:57:59.736Z,39.1
2018-08-28T08:59:01.339Z,39.6
2018-08-28T09:00:03.004Z,39.1
2018-08-28T09:01:04.326Z,39.6
2018-08-28T09:02:05.971Z,39.1
2018-08-28T09:03:07.614Z,39.6
2018-08-28T09:04:09.090Z,39.6
2018-08-28T09:05:10.542Z,38.6
2018-08-28T09:06:12.677Z,39.1
2018-08-28T09:07:14.802Z,39.6
2018-08-28T09:08:16.406Z,39.1
2018-08-28T09:09:17.877Z,39.6
2018-08-28T09:10:19.499Z,39.6
2018-08-28T09:11:20.963Z,40.1
2018-08-28T09:12:22.435Z,39.1
2018-08-28T09:13:24.300Z,39.6
2018-08-28T09:14:25.993Z,39.6
2018-08-28T09:15:27.459Z,39.6
2018-08-28T09:16:29.113Z,40.1
2018-08-28T09:17:30.594Z,39.1
2018-08-28T09:18:32.234Z,40.1
2018-08-28T09:19:33.508Z,39.6
2018-08-28T09:20:35.123Z,39.6
2018-08-28T09:21:36.785Z,39.6
2018-08-28T09:22:38.239Z,40.1
2018-08-28T09:23:39.670Z,40.1
2018-08-28T09:24:41.305Z,39.6
2018-08-28T09:25:42.805Z,40.6
2018-08-28T09:26:44.144Z,40.1
2018-08-28T09:27:45.756Z,40.1
2018-08-28T09:28:47.423Z,40.6
2018-08-28T09:29:48.932Z,40.1
2018-08-28T09:30:50.575Z,41.1
2018-08-28T09:31:52.195Z,41.1
2018-08-28T09:32:53.818Z,41.5
2018-08-28T09:33:55.473Z,41.5
2018-08-28T09:34:57.123Z,42
2018-08-28T09:35:58.571Z,40.6
2018-08-28T09:36:59.844Z,41.1
2018-08-28T09:38:01.499Z,41.1
2018-08-28T09:39:03.165Z,42
2018-08-28T09:40:04.653Z,41.5
2018-08-28T09:41:06.150Z,41.1
2018-08-28T09:42:07.598Z,41.1
2018-08-28T09:43:09.083Z,41.5
2018-08-28T09:44:10.551Z,41.5
2018-08-28T09:45:12.006Z,41.5
2018-08-28T09:46:13.626Z,41.5
2018-08-28T09:47:15.089Z,42
2018-08-28T09:48:17.434Z,41.1
2018-08-28T09:49:19.446Z,42
2018-08-28T09:50:21.475Z,41.1
2018-08-28T09:51:23.594Z,41.5
2018-08-28T09:52:25.102Z,41.1
2018-08-28T09:53:26.539Z,40.6
2018-08-28T09:54:28.236Z,41.1
2018-08-28T09:55:29.857Z,41.5
2018-08-28T09:56:31.723Z,41.1
2018-08-28T09:57:33.594Z,41.5
2018-08-28T09:58:35.046Z,41.1
2018-08-28T09:59:36.326Z,41.1
2018-08-28T10:00:37.772Z,41.5
2018-08-28T10:01:39.371Z,40.6
2018-08-28T10:02:40.822Z,41.1
2018-08-28T10:03:42.441Z,41.5
2018-08-28T10:04:44.345Z,40.6
2018-08-28T10:05:46.106Z,41.5
2018-08-28T10:06:47.726Z,41.1
2018-08-28T10:07:49.651Z,41.1
2018-08-28T10:08:51.521Z,40.6
2018-08-28T10:09:52.947Z,40.1
2018-08-28T10:10:54.715Z,40.6
2018-08-28T10:11:56.413Z,41.5
2018-08-28T10:12:58.026Z,41.1
2018-08-28T10:13:59.657Z,40.6
2018-08-28T10:15:01.113Z,40.6
2018-08-28T10:16:02.745Z,41.5
2018-08-28T10:17:04.353Z,41.1
2018-08-28T10:18:05.987Z,41.1
2018-08-28T10:19:07.438Z,39.6
2018-08-28T10:20:08.918Z,40.1
2018-08-28T10:21:10.537Z,40.1
2018-08-28T10:22:11.850Z,40.6
2018-08-28T10:23:12.994Z,40.1
2018-08-28T10:24:14.438Z,40.1
2018-08-28T10:25:15.881Z,40.6
2018-08-28T10:26:17.509Z,40.6
2018-08-28T10:27:18.961Z,40.1
2018-08-28T10:28:20.416Z,39.6
2018-08-28T10:29:21.864Z,40.1
2018-08-28T10:30:23.934Z,40.1
2018-08-28T10:31:25.557Z,39.6
2018-08-28T10:32:27.018Z,39.6
2018-08-28T10:33:28.473Z,40.1
2018-08-28T10:34:29.930Z,39.6
2018-08-28T10:35:31.570Z,40.1
2018-08-28T10:36:33.195Z,40.6
2018-08-28T10:37:34.820Z,39.1
2018-08-28T10:38:36.440Z,39.6
2018-08-28T10:39:37.902Z,40.1
2018-08-28T10:40:39.343Z,39.6
2018-08-28T10:41:40.833Z,39.6
2018-08-28T10:42:42.476Z,40.1
2018-08-28T10:43:44.077Z,39.1
2018-08-28T10:44:45.558Z,39.6
2018-08-28T10:45:46.873Z,39.6
2018-08-28T10:46:49.474Z,39.6
2018-08-28T10:47:51.782Z,38.6
2018-08-28T10:48:53.229Z,40.1
2018-08-28T10:49:54.873Z,39.1
2018-08-28T10:50:56.340Z,39.6
2018-08-28T10:51:57.967Z,39.6
2018-08-28T10:53:00.293Z,40.1
2018-08-28T10:54:02.291Z,39.6
2018-08-28T10:55:03.581Z,39.6
2018-08-28T10:56:05.253Z,38.6
2018-08-28T10:57:06.700Z,39.1
2018-08-28T10:58:08.326Z,40.1
2018-08-28T10:59:09.934Z,39.1
2018-08-28T11:00:11.547Z,39.6
2018-08-28T11:01:13.195Z,39.1
2018-08-28T11:02:14.801Z,38.6
2018-08-28T11:03:16.457Z,39.6
2018-08-28T11:04:17.817Z,39.1
2018-08-28T11:05:19.287Z,39.6
2018-08-28T11:06:20.919Z,39.6
2018-08-28T11:07:22.397Z,38.6
2018-08-28T11:08:24.075Z,39.1
2018-08-28T11:09:25.550Z,40.1
2018-08-28T11:10:27.226Z,39.1
2018-08-28T11:11:28.867Z,39.1
2018-08-28T11:12:30.506Z,40.1
2018-08-28T11:13:31.650Z,39.6
2018-08-28T11:14:33.115Z,41.1
2018-08-28T11:15:34.568Z,39.6
2018-08-28T11:16:36.211Z,40.1
2018-08-28T11:17:37.672Z,40.6
2018-08-28T11:18:39.310Z,40.1
2018-08-28T11:19:40.950Z,41.5
2018-08-28T11:20:42.581Z,41.1
2018-08-28T11:21:44.208Z,40.6
2018-08-28T11:22:45.608Z,40.6
2018-08-28T11:23:47.318Z,40.6
2018-08-28T11:24:48.770Z,41.1
2018-08-28T11:25:50.399Z,40.1
2018-08-28T11:26:51.865Z,41.1
2018-08-28T11:27:53.479Z,41.1
2018-08-28T11:28:54.939Z,40.6
2018-08-28T11:29:56.591Z,40.6
2018-08-28T11:30:58.040Z,41.1
2018-08-28T11:32:31.578Z,41.1
2018-08-28T11:33:33.209Z,41.5
2018-08-28T11:34:34.834Z,41.1
2018-08-28T11:35:36.290Z,41.5
2018-08-28T11:36:37.669Z,41.5
2018-08-28T11:37:39.297Z,40.6
2018-08-28T11:38:40.580Z,41.5
2018-08-28T11:39:42.034Z,41.1
2018-08-28T11:40:43.497Z,41.5
2018-08-28T11:41:45.116Z,41.1
2018-08-28T11:42:46.748Z,40.6
2018-08-28T11:43:48.389Z,41.5
2018-08-28T11:44:50.053Z,41.5
2018-08-28T11:45:51.670Z,41.1
2018-08-28T11:46:53.318Z,41.1
2018-08-28T11:47:54.945Z,41.1
2018-08-28T11:48:56.614Z,42
2018-08-28T11:49:58.271Z,41.1
2018-08-28T11:50:59.895Z,41.1
2018-08-28T11:52:01.551Z,41.1
2018-08-28T11:53:03.383Z,40.6
2018-08-28T11:54:04.920Z,40.6
2018-08-28T11:55:06.208Z,40.6
2018-08-28T11:56:07.860Z,41.1
2018-08-28T11:57:09.528Z,41.1
2018-08-28T11:58:11.154Z,41.1
2018-08-28T11:59:12.627Z,40.1
2018-08-28T12:00:14.238Z,41.1
2018-08-28T12:01:15.890Z,40.1
2018-08-28T12:02:17.356Z,40.6
2018-08-28T12:03:18.974Z,41.1
2018-08-28T12:04:20.594Z,40.1
2018-08-28T12:05:22.645Z,40.1
2018-08-28T12:06:24.642Z,40.6
2018-08-28T12:07:26.734Z,40.1
2018-08-28T12:08:28.801Z,40.6
2018-08-28T12:09:30.269Z,40.1
2018-08-28T12:10:31.781Z,40.6
2018-08-28T12:11:33.392Z,40.1
2018-08-28T12:12:35.005Z,39.6
2018-08-28T12:13:36.448Z,40.1
2018-08-28T12:14:38.094Z,39.6
2018-08-28T12:15:39.587Z,40.1
2018-08-28T12:16:41.223Z,40.1
2018-08-28T12:17:42.707Z,39.6
2018-08-28T12:18:44.352Z,39.6
2018-08-28T12:19:45.965Z,40.1
2018-08-28T12:20:47.707Z,39.6
2018-08-28T12:21:49.169Z,40.6
2018-08-28T12:22:50.631Z,40.1
2018-08-28T12:23:51.924Z,40.1
2018-08-28T12:24:53.378Z,40.1
2018-08-28T12:25:54.826Z,39.6
2018-08-28T12:26:56.454Z,39.6
2018-08-28T12:27:58.084Z,40.1
2018-08-28T12:28:59.540Z,39.1
2018-08-28T12:30:01.183Z,39.6
2018-08-28T12:31:02.814Z,39.6
2018-08-28T12:32:04.274Z,40.1
2018-08-28T12:33:05.720Z,39.6
2018-08-28T12:34:07.155Z,39.1
2018-08-28T12:35:08.597Z,39.6
2018-08-28T12:36:10.083Z,38.6
2018-08-28T12:37:12.007Z,39.1
2018-08-28T12:38:13.682Z,39.1
2018-08-28T12:39:15.317Z,39.6
2018-08-28T12:40:16.975Z,39.6
2018-08-28T12:41:18.613Z,39.1
2018-08-28T12:42:20.226Z,40.1
2018-08-28T12:43:21.843Z,39.6
2018-08-28T12:44:23.532Z,39.6
2018-08-28T12:45:25.161Z,38.6
2018-08-28T12:46:26.813Z,39.6
2018-08-28T12:47:28.262Z,39.1
2018-08-28T12:48:29.856Z,39.1
2018-08-28T12:49:31.319Z,39.1
2018-08-28T12:50:32.947Z,39.6
2018-08-28T12:51:34.553Z,39.1
2018-08-28T12:52:36.181Z,38.6
2018-08-28T12:53:37.777Z,39.6
2018-08-28T12:54:39.235Z,38.6
2018-08-28T12:55:40.901Z,40.1
2018-08-28T12:56:42.552Z,39.6
2018-08-28T12:57:44.207Z,40.6
2018-08-28T12:58:45.718Z,39.1
2018-08-28T12:59:47.191Z,40.1
2018-08-28T13:00:49.138Z,40.1
2018-08-28T13:01:50.870Z,40.1
2018-08-28T13:02:52.481Z,40.1
2018-08-28T13:03:53.616Z,40.6
2018-08-28T13:04:55.301Z,40.1
2018-08-28T13:05:56.927Z,40.6
2018-08-28T13:06:58.400Z,40.1
2018-08-28T13:07:59.883Z,40.1
2018-08-28T13:09:01.356Z,41.1
2018-08-28T13:10:02.813Z,40.6
2018-08-28T13:11:04.313Z,41.1
2018-08-28T13:12:05.916Z,41.5
2018-08-28T13:13:07.572Z,41.1
2018-08-28T13:14:09.033Z,41.5
2018-08-28T13:15:10.685Z,41.1
2018-08-28T13:16:12.027Z,41.1
2018-08-28T13:17:13.668Z,41.5
2018-08-28T13:18:15.299Z,41.1
2018-08-28T13:19:16.955Z,41.5
2018-08-28T13:20:18.573Z,41.1
2018-08-28T13:21:20.196Z,41.5
2018-08-28T13:22:21.687Z,41.5
2018-08-28T13:23:23.146Z,40.6
2018-08-28T13:24:24.801Z,41.5
2018-08-28T13:25:26.773Z,41.1
2018-08-28T13:26:28.496Z,41.1
2018-08-28T13:27:30.150Z,41.5
2018-08-28T13:28:31.635Z,41.1
2018-08-28T13:29:33.285Z,41.1
2018-08-28T13:30:34.997Z,41.1
2018-08-28T13:31:36.468Z,41.1
2018-08-28T13:32:37.942Z,40.6
2018-08-28T13:33:39.402Z,41.1
2018-08-28T13:34:40.857Z,41.5
2018-08-28T13:35:42.519Z,41.1
2018-08-28T13:36:44.166Z,41.1
2018-08-28T13:37:45.795Z,41.5
2018-08-28T13:38:47.228Z,41.1
2018-08-28T13:39:48.693Z,41.5